createdAt,value
2017-12-23T00:01:19.614Z,10.93
2017-12-23T00:03:46.394Z,10.70
2017-12-23T00:06:13.151Z,11.37
2017-12-23T00:08:40.468Z,13.70
2017-12-23T00:11:06.786Z,12.63
2017-12-23T00:13:33.075Z,13.10
2017-12-23T00:15:59.325Z,8.90
2017-12-23T00:18:26.324Z,12.50
2017-12-23T00:20:52.551Z,13.40
2017-12-23T00:23:18.812Z,13.47
2017-12-23T00:25:45.062Z,14.17
2017-12-23T00:28:11.335Z,15.00
2017-12-23T00:30:37.552Z,14.40
2017-12-23T00:33:03.828Z,13.33
2017-12-23T00:35:30.812Z,10.30
2017-12-23T00:37:57.088Z,12.97
2017-12-23T00:40:24.873Z,10.90
2017-12-23T00:42:51.880Z,13.63
2017-12-23T00:45:18.136Z,14.10
2017-12-23T00:47:45.136Z,13.20
2017-12-23T00:50:11.391Z,15.20
2017-12-23T00:52:37.656Z,12.57
2017-12-23T00:55:04.704Z,10.83
2017-12-23T00:57:31.709Z,14.57
2017-12-23T00:59:58.031Z,15.50
2017-12-23T01:02:24.395Z,14.50
2017-12-23T01:04:50.669Z,14.30
2017-12-23T01:07:16.927Z,14.03
2017-12-23T01:09:43.197Z,9.67
2017-12-23T01:12:10.175Z,10.97
2017-12-23T01:14:36.428Z,15.30
2017-12-23T01:17:03.417Z,14.13
2017-12-23T01:19:30.457Z,12.47
2017-12-23T01:21:56.692Z,13.80
2017-12-23T01:24:23.691Z,12.50
2017-12-23T01:26:49.946Z,16.77
2017-12-23T01:29:16.184Z,15.87
2017-12-23T01:31:42.448Z,16.67
2017-12-23T01:34:08.704Z,16.37
2017-12-23T01:36:35.099Z,16.80
2017-12-23T01:39:02.157Z,16.50
2017-12-23T01:41:29.162Z,16.40
2017-12-23T01:43:55.432Z,16.70
2017-12-23T01:46:22.434Z,16.73
2017-12-23T01:48:48.661Z,16.70
2017-12-23T01:51:14.927Z,17.67
2017-12-23T01:53:41.915Z,15.67
2017-12-23T01:56:08.176Z,18.43
2017-12-23T01:58:34.424Z,19.60
2017-12-23T02:01:00.683Z,20.30
2017-12-23T02:03:26.929Z,19.33
2017-12-23T02:05:53.178Z,16.83
2017-12-23T02:08:19.434Z,19.60
2017-12-23T02:10:45.708Z,21.20
2017-12-23T02:13:11.948Z,20.63
2017-12-23T02:15:38.269Z,19.00
2017-12-23T02:18:04.520Z,13.80
2017-12-23T02:20:30.801Z,19.60
2017-12-23T02:22:57.820Z,21.47
2017-12-23T02:25:24.108Z,23.80
2017-12-23T02:27:50.335Z,17.10
2017-12-23T02:30:16.582Z,23.10
2017-12-23T02:32:42.834Z,20.70
2017-12-23T02:35:09.108Z,22.43
2017-12-23T02:37:35.352Z,19.40
2017-12-23T02:40:01.614Z,24.03
2017-12-23T02:42:27.868Z,26.17
2017-12-23T02:44:54.131Z,22.30
2017-12-23T02:47:20.387Z,23.93
2017-12-23T02:49:46.659Z,21.40
2017-12-23T02:52:13.652Z,22.97
2017-12-23T02:54:39.899Z,24.00
2017-12-23T02:57:06.131Z,24.50
2017-12-23T02:59:32.410Z,26.30
2017-12-23T03:01:59.403Z,15.07
2017-12-23T03:04:25.642Z,19.13
2017-12-23T03:06:51.893Z,19.07
2017-12-23T03:09:18.152Z,24.50
2017-12-23T03:11:44.387Z,26.40
2017-12-23T03:14:10.650Z,26.20
2017-12-23T03:16:36.928Z,24.77
2017-12-23T03:19:03.945Z,16.50
2017-12-23T03:21:30.216Z,20.27
2017-12-23T03:23:56.467Z,20.50
2017-12-23T03:26:22.746Z,15.77
2017-12-23T03:28:49.781Z,25.87
2017-12-23T03:31:17.132Z,20.70
2017-12-23T03:33:43.391Z,24.20
2017-12-23T03:36:09.669Z,23.57
2017-12-23T03:38:35.905Z,25.60
2017-12-23T03:41:02.225Z,13.03
2017-12-23T03:43:28.453Z,22.53
2017-12-23T03:45:54.732Z,26.70
2017-12-23T03:48:21.722Z,21.57
2017-12-23T03:50:47.984Z,21.00
2017-12-23T03:53:14.240Z,25.53
2017-12-23T03:55:40.510Z,21.40
2017-12-23T03:58:07.502Z,22.83
2017-12-23T04:00:34.532Z,23.67
2017-12-23T04:03:00.782Z,21.97
2017-12-23T04:05:27.776Z,25.53
2017-12-23T04:07:54.018Z,22.50
2017-12-23T04:10:20.267Z,20.93
2017-12-23T04:12:46.516Z,21.23
2017-12-23T04:15:12.777Z,21.90
2017-12-23T04:17:39.004Z,21.20
2017-12-23T04:20:05.317Z,25.93
2017-12-23T04:22:31.560Z,21.03
2017-12-23T04:24:57.871Z,22.87
2017-12-23T04:27:24.126Z,24.50
2017-12-23T04:29:50.387Z,22.00
2017-12-23T04:32:16.617Z,27.87
2017-12-23T04:34:42.874Z,23.40
2017-12-23T04:37:09.135Z,12.77
2017-12-23T04:39:35.403Z,24.47
2017-12-23T04:42:01.664Z,22.67
2017-12-23T04:44:27.929Z,17.67
2017-12-23T04:46:54.185Z,24.63
2017-12-23T04:49:20.442Z,28.93
2017-12-23T04:51:46.731Z,26.13
2017-12-23T04:54:13.089Z,25.10
2017-12-23T04:56:40.067Z,28.67
2017-12-23T04:59:06.324Z,27.33
2017-12-23T05:01:32.555Z,29.17
2017-12-23T05:03:59.574Z,22.23
2017-12-23T05:06:25.827Z,21.93
2017-12-23T05:08:52.068Z,26.00
2017-12-23T05:11:18.338Z,25.93
2017-12-23T05:13:45.658Z,26.07
2017-12-23T05:16:11.924Z,23.63
2017-12-23T05:18:38.179Z,18.23
2017-12-23T05:21:04.437Z,17.60
2017-12-23T05:23:30.685Z,12.43
2017-12-23T05:25:57.721Z,23.00
2017-12-23T05:28:23.951Z,22.23
2017-12-23T05:30:50.219Z,18.47
2017-12-23T05:33:16.457Z,16.77
2017-12-23T05:35:42.699Z,20.83
2017-12-23T05:38:08.947Z,19.83
2017-12-23T05:40:35.203Z,16.70
2017-12-23T05:43:02.227Z,21.90
2017-12-23T05:45:28.488Z,14.47
2017-12-23T05:47:55.470Z,24.80
2017-12-23T05:50:21.737Z,21.60
2017-12-23T05:52:47.958Z,12.90
2017-12-23T05:55:14.248Z,20.10
2017-12-23T05:57:40.587Z,22.87
2017-12-23T06:00:06.898Z,20.53
2017-12-23T06:02:33.155Z,21.67
2017-12-23T06:04:59.393Z,17.93
2017-12-23T06:07:25.653Z,23.73
2017-12-23T06:09:52.627Z,21.60
2017-12-23T06:12:18.897Z,21.27
2017-12-23T06:14:45.502Z,18.17
2017-12-23T06:17:11.768Z,14.27
2017-12-23T06:19:38.016Z,9.03
2017-12-23T06:22:04.265Z,12.47
2017-12-23T06:24:31.236Z,17.87
2017-12-23T06:26:57.519Z,15.37
2017-12-23T06:29:23.774Z,13.87
2017-12-23T06:31:50.763Z,12.70
2017-12-23T06:34:17.023Z,17.87
2017-12-23T06:36:43.293Z,19.73
2017-12-23T06:39:09.545Z,17.30
2017-12-23T06:41:35.836Z,16.87
2017-12-23T06:44:02.116Z,13.60
2017-12-23T06:46:28.398Z,14.60
2017-12-23T06:48:55.405Z,14.90
2017-12-23T06:51:21.682Z,12.80
2017-12-23T06:53:47.964Z,14.40
2017-12-23T06:56:14.252Z,11.73
2017-12-23T06:58:40.532Z,11.83
2017-12-23T07:01:06.804Z,11.83
2017-12-23T07:03:33.068Z,12.13
2017-12-23T07:05:59.335Z,10.07
2017-12-23T07:08:26.311Z,12.97
2017-12-23T07:10:52.583Z,12.20
2017-12-23T07:13:19.566Z,7.83
2017-12-23T07:15:46.628Z,13.00
2017-12-23T07:18:12.877Z,10.50
2017-12-23T07:20:39.143Z,12.67
2017-12-23T07:23:05.502Z,11.43
2017-12-23T07:25:32.540Z,10.27
2017-12-23T07:27:59.542Z,12.10
2017-12-23T07:30:26.551Z,13.80
2017-12-23T07:32:52.786Z,6.60
2017-12-23T07:35:19.057Z,13.17
2017-12-23T07:37:45.292Z,13.03
2017-12-23T07:40:11.547Z,7.33
2017-12-23T07:42:38.600Z,12.33
2017-12-23T07:45:05.572Z,9.13
2017-12-23T07:47:31.824Z,8.27
2017-12-23T07:49:58.056Z,11.80
2017-12-23T07:52:24.315Z,11.63
2017-12-23T07:54:50.563Z,11.93
2017-12-23T07:57:17.569Z,7.03
2017-12-23T07:59:44.555Z,11.50
2017-12-23T08:02:11.571Z,10.90
2017-12-23T08:04:39.368Z,9.40
2017-12-23T08:07:06.423Z,6.37
2017-12-23T08:09:33.399Z,6.87
2017-12-23T08:11:59.661Z,6.90
2017-12-23T08:14:25.912Z,8.50
2017-12-23T08:16:52.955Z,7.93
2017-12-23T08:19:19.311Z,9.40
2017-12-23T08:21:45.695Z,8.33
2017-12-23T08:24:11.952Z,7.63
2017-12-23T08:26:38.960Z,6.70
2017-12-23T08:29:05.240Z,8.27
2017-12-23T08:31:32.292Z,8.50
2017-12-23T08:33:58.573Z,7.13
2017-12-23T08:36:25.551Z,5.50
2017-12-23T08:38:52.567Z,7.47
2017-12-23T08:41:19.538Z,11.10
2017-12-23T08:43:45.802Z,10.83
2017-12-23T08:46:12.130Z,8.73
2017-12-23T08:48:38.391Z,6.63
2017-12-23T08:51:05.371Z,8.93
2017-12-23T08:53:32.395Z,6.17
2017-12-23T08:55:58.649Z,4.73
2017-12-23T08:58:24.984Z,6.80
2017-12-23T09:00:51.249Z,7.57
2017-12-23T09:03:17.513Z,9.93
2017-12-23T09:05:43.755Z,8.20
2017-12-23T09:08:10.037Z,5.00
2017-12-23T09:10:36.284Z,6.53
2017-12-23T09:13:02.588Z,7.10
2017-12-23T09:15:28.818Z,6.63
2017-12-23T09:17:55.079Z,6.23
2017-12-23T09:20:21.346Z,6.10
2017-12-23T09:22:48.343Z,4.30
2017-12-23T09:25:14.789Z,6.27
2017-12-23T09:27:41.035Z,6.07
2017-12-23T09:30:08.409Z,5.33
2017-12-23T09:32:35.417Z,3.50
2017-12-23T09:35:01.669Z,5.00
2017-12-23T09:37:27.935Z,5.07
2017-12-23T09:39:54.172Z,7.30
2017-12-23T09:42:20.593Z,2.80
2017-12-23T09:44:47.609Z,5.70
2017-12-23T09:47:13.857Z,8.73
2017-12-23T09:49:40.877Z,5.50
2017-12-23T09:52:07.137Z,6.10
2017-12-23T09:54:34.199Z,8.10
2017-12-23T09:57:00.455Z,7.87
2017-12-23T09:59:26.824Z,5.63
2017-12-23T10:01:53.088Z,7.47
2017-12-23T10:04:19.401Z,9.70
2017-12-23T10:06:46.669Z,7.17
2017-12-23T10:09:12.923Z,8.47
2017-12-23T10:11:39.159Z,10.03
2017-12-23T10:14:05.452Z,10.90
2017-12-23T10:16:32.479Z,6.90
2017-12-23T10:18:58.778Z,7.97
2017-12-23T10:21:25.055Z,9.47
2017-12-23T10:23:52.034Z,7.63
2017-12-23T10:26:18.312Z,8.03
2017-12-23T10:28:44.808Z,6.17
2017-12-23T10:31:11.060Z,9.77
2017-12-23T10:33:37.376Z,8.73
2017-12-23T10:36:03.624Z,6.70
2017-12-23T10:38:29.894Z,11.10
2017-12-23T10:40:56.158Z,8.77
2017-12-23T10:43:22.436Z,8.07
2017-12-23T10:45:49.460Z,9.23
2017-12-23T10:48:15.734Z,6.23
2017-12-23T10:50:42.064Z,7.30
2017-12-23T10:53:08.332Z,7.77
2017-12-23T10:55:34.617Z,9.70
2017-12-23T10:58:00.885Z,5.10
2017-12-23T11:00:28.683Z,6.77
2017-12-23T11:02:55.088Z,7.70
2017-12-23T11:05:21.354Z,9.87
2017-12-23T11:07:48.348Z,8.93
2017-12-23T11:10:14.645Z,8.40
2017-12-23T11:12:40.994Z,6.20
2017-12-23T11:15:07.280Z,8.53
2017-12-23T11:17:33.559Z,8.23
2017-12-23T11:19:59.803Z,9.10
2017-12-23T11:22:26.064Z,12.40
2017-12-23T11:24:52.300Z,9.00
2017-12-23T11:27:19.302Z,11.30
2017-12-23T11:29:45.533Z,12.27
2017-12-23T11:32:11.798Z,13.23
2017-12-23T11:34:38.047Z,10.33
2017-12-23T11:37:05.041Z,13.93
2017-12-23T11:39:31.309Z,14.83
2017-12-23T11:41:58.315Z,14.73
2017-12-23T11:44:24.566Z,9.83
2017-12-23T11:46:51.011Z,15.23
2017-12-23T11:49:18.025Z,10.90
2017-12-23T11:51:44.265Z,18.17
2017-12-23T11:54:10.672Z,13.07
2017-12-23T11:56:37.046Z,14.03
2017-12-23T11:59:03.312Z,9.93
2017-12-23T12:01:29.559Z,15.57
2017-12-23T12:03:55.835Z,17.63
2017-12-23T12:06:22.811Z,14.67
2017-12-23T12:08:49.140Z,17.67
2017-12-23T12:11:15.367Z,11.80
2017-12-23T12:13:41.632Z,17.27
2017-12-23T12:16:07.859Z,16.40
2017-12-23T12:18:34.103Z,18.13
2017-12-23T12:21:00.362Z,15.03
2017-12-23T12:23:27.393Z,20.17
2017-12-23T12:25:53.608Z,25.67
2017-12-23T12:28:19.973Z,19.23
2017-12-23T12:30:47.111Z,22.43
2017-12-23T12:33:13.353Z,18.03
2017-12-23T12:35:40.324Z,25.43
2017-12-23T12:38:06.576Z,17.30
2017-12-23T12:40:32.844Z,25.00
2017-12-23T12:42:59.085Z,23.67
2017-12-23T12:45:26.096Z,18.30
2017-12-23T12:47:52.358Z,15.73
2017-12-23T12:50:19.362Z,19.63
2017-12-23T12:52:45.616Z,19.93
2017-12-23T12:55:11.858Z,18.70
2017-12-23T12:57:38.827Z,22.17
2017-12-23T13:00:05.095Z,29.17
2017-12-23T13:02:31.352Z,23.43
2017-12-23T13:04:57.628Z,29.47
2017-12-23T13:07:23.870Z,19.20
2017-12-23T13:09:50.180Z,20.10
2017-12-23T13:12:16.436Z,30.53
2017-12-23T13:14:42.689Z,22.13
2017-12-23T13:17:08.960Z,24.03
2017-12-23T13:19:35.201Z,31.70
2017-12-23T13:22:01.452Z,29.30
2017-12-23T13:24:27.746Z,25.37
2017-12-23T13:26:54.082Z,22.47
2017-12-23T13:29:20.333Z,21.63
2017-12-23T13:31:47.415Z,29.80
2017-12-23T13:34:13.681Z,31.47
2017-12-23T13:36:39.947Z,29.00
2017-12-23T13:39:06.199Z,18.53
2017-12-23T13:41:32.486Z,18.90
2017-12-23T13:43:58.725Z,25.47
2017-12-23T13:46:24.966Z,29.43
2017-12-23T13:48:51.217Z,22.10
2017-12-23T13:51:17.459Z,23.10
2017-12-23T13:53:43.766Z,29.05
2017-12-23T13:56:10.044Z,32.40
2017-12-23T13:58:36.294Z,26.13
2017-12-23T14:01:02.635Z,22.43
2017-12-23T14:03:28.929Z,23.70
2017-12-23T14:05:55.905Z,28.50
2017-12-23T14:08:22.180Z,21.33
2017-12-23T14:10:49.161Z,23.80
2017-12-23T14:13:15.443Z,29.87
2017-12-23T14:15:41.709Z,25.73
2017-12-23T14:18:07.971Z,24.10
2017-12-23T14:20:34.195Z,29.27
2017-12-23T14:23:00.535Z,30.10
2017-12-23T14:25:26.876Z,30.00
2017-12-23T14:27:53.890Z,19.23
2017-12-23T14:30:20.145Z,27.97
2017-12-23T14:32:46.386Z,24.40
2017-12-23T14:35:12.623Z,21.63
2017-12-23T14:37:38.888Z,21.27
2017-12-23T14:40:05.112Z,24.23
2017-12-23T14:42:32.107Z,19.93
2017-12-23T14:44:58.364Z,26.40
2017-12-23T14:47:24.628Z,20.27
2017-12-23T14:49:51.662Z,26.60
2017-12-23T14:52:18.664Z,21.37
2017-12-23T14:54:44.914Z,26.47
2017-12-23T14:57:11.196Z,21.13
2017-12-23T14:59:37.420Z,20.90
2017-12-23T15:02:03.684Z,19.77
2017-12-23T15:04:29.932Z,14.47
2017-12-23T15:06:56.197Z,19.77
2017-12-23T15:09:22.460Z,17.37
2017-12-23T15:11:48.809Z,23.87
2017-12-23T15:14:15.058Z,15.70
2017-12-23T15:16:42.061Z,15.40
2017-12-23T15:19:08.315Z,19.03
2017-12-23T15:21:34.568Z,23.10
2017-12-23T15:24:01.599Z,22.20
2017-12-23T15:26:27.844Z,20.03
2017-12-23T15:28:54.870Z,16.97
2017-12-23T15:31:21.276Z,14.80
2017-12-23T15:33:55.464Z,18.57
2017-12-23T15:36:21.722Z,19.53
2017-12-23T15:38:47.980Z,19.13
2017-12-23T15:41:14.199Z,18.00
2017-12-23T15:43:40.458Z,17.53
2017-12-23T15:46:07.516Z,17.90
2017-12-23T15:48:33.793Z,16.50
2017-12-23T15:51:00.028Z,11.03
2017-12-23T15:53:26.317Z,17.07
2017-12-23T15:55:52.570Z,21.23
2017-12-23T15:58:18.844Z,18.60
2017-12-23T16:00:45.884Z,19.20
2017-12-23T16:03:12.919Z,15.20
2017-12-23T16:05:39.179Z,15.00
2017-12-23T16:08:05.433Z,23.00
2017-12-23T16:10:31.708Z,20.37
2017-12-23T16:12:58.034Z,15.83
2017-12-23T16:15:24.349Z,17.20
2017-12-23T16:17:50.596Z,22.60
2017-12-23T16:20:17.222Z,20.00
2017-12-23T16:22:43.484Z,20.00
2017-12-23T16:25:09.750Z,15.53
2017-12-23T16:27:35.959Z,14.73
2017-12-23T16:30:02.269Z,14.97
2017-12-23T16:32:29.266Z,16.90
2017-12-23T16:34:55.541Z,19.87
2017-12-23T16:37:22.528Z,14.03
2017-12-23T16:39:48.784Z,21.20
2017-12-23T16:42:15.030Z,21.53
2017-12-23T16:44:41.294Z,14.80
2017-12-23T16:47:07.605Z,18.40
2017-12-23T16:49:34.621Z,17.43
2017-12-23T16:52:00.865Z,21.50
2017-12-23T16:54:27.124Z,21.50
2017-12-23T16:56:53.346Z,15.47
2017-12-23T16:59:20.426Z,16.40
2017-12-23T17:01:46.655Z,16.17
2017-12-23T17:04:12.954Z,21.80
2017-12-23T17:06:39.200Z,18.00
2017-12-23T17:09:05.479Z,20.80
2017-12-23T17:11:31.808Z,19.27
2017-12-23T17:13:58.055Z,16.17
2017-12-23T17:16:25.023Z,19.77
2017-12-23T17:18:51.289Z,17.37
2017-12-23T17:21:17.567Z,21.37
2017-12-23T17:23:44.558Z,22.50
2017-12-23T17:26:10.856Z,13.07
2017-12-23T17:28:49.499Z,22.83
2017-12-23T17:31:15.730Z,18.60
2017-12-23T17:33:42.026Z,15.00
2017-12-23T17:36:09.014Z,18.07
2017-12-23T17:38:35.293Z,20.07
2017-12-23T17:41:02.304Z,25.90
2017-12-23T17:43:28.568Z,21.87
2017-12-23T17:45:55.564Z,21.40
2017-12-23T17:48:21.849Z,27.50
2017-12-23T17:50:48.843Z,26.60
2017-12-23T17:53:15.451Z,17.17
2017-12-23T17:55:41.720Z,25.70
2017-12-23T17:58:08.077Z,25.40
2017-12-23T18:00:34.358Z,25.37
2017-12-23T18:03:00.618Z,22.47
2017-12-23T18:05:26.880Z,23.10
2017-12-23T18:07:53.859Z,17.67
2017-12-23T18:10:20.116Z,15.43
2017-12-23T18:12:46.342Z,16.33
2017-12-23T18:15:12.705Z,18.00
2017-12-23T18:17:39.729Z,18.30
2017-12-23T18:20:06.013Z,19.27
2017-12-23T18:22:32.386Z,22.77
2017-12-23T18:24:58.664Z,22.07
2017-12-23T18:27:24.962Z,20.57
2017-12-23T18:29:51.214Z,21.90
2017-12-23T18:32:18.225Z,19.70
2017-12-23T18:34:44.585Z,19.37
2017-12-23T18:37:11.617Z,17.60
2017-12-23T18:39:38.605Z,18.07
2017-12-23T18:42:04.865Z,14.97
2017-12-23T18:44:31.871Z,16.97
2017-12-23T18:46:58.155Z,15.30
2017-12-23T18:49:24.416Z,18.57
2017-12-23T18:51:51.441Z,18.40
2017-12-23T18:54:17.733Z,12.90
2017-12-23T18:56:43.994Z,19.37
2017-12-23T18:59:10.313Z,9.57
2017-12-23T19:01:36.586Z,17.47
2017-12-23T19:04:03.613Z,19.17
2017-12-23T19:06:29.916Z,19.30
2017-12-23T19:08:56.953Z,18.90
2017-12-23T19:11:23.196Z,19.50
2017-12-23T19:13:49.456Z,21.50
2017-12-23T19:16:29.026Z,17.37
2017-12-23T19:18:55.375Z,16.10
2017-12-23T19:21:21.638Z,16.93
2017-12-23T19:23:47.909Z,17.77
2017-12-23T19:26:14.265Z,23.70
2017-12-23T19:28:40.553Z,21.90
2017-12-23T19:31:07.583Z,19.43
2017-12-23T19:33:33.957Z,15.80
2017-12-23T19:36:00.229Z,19.27
2017-12-23T19:38:26.478Z,22.63
2017-12-23T19:40:53.039Z,21.73
2017-12-23T19:43:19.295Z,18.20
2017-12-23T19:45:45.593Z,22.80
2017-12-23T19:48:11.856Z,18.00
2017-12-23T19:50:38.180Z,23.07
2017-12-23T19:53:04.477Z,15.87
2017-12-23T19:55:31.512Z,23.97
2017-12-23T19:57:57.854Z,18.20
2017-12-23T20:00:24.869Z,21.07
2017-12-23T20:02:51.123Z,22.10
2017-12-23T20:05:18.191Z,20.13
2017-12-23T20:07:44.457Z,24.77
2017-12-23T20:10:10.723Z,17.40
2017-12-23T20:12:37.713Z,25.83
2017-12-23T20:15:03.955Z,27.17
2017-12-23T20:17:30.194Z,18.83
2017-12-23T20:19:56.448Z,17.20
2017-12-23T20:22:22.711Z,22.70
2017-12-23T20:24:48.999Z,24.87
2017-12-23T20:27:15.298Z,20.23
2017-12-23T20:29:41.588Z,17.20
2017-12-23T20:32:08.636Z,22.23
2017-12-23T20:34:34.919Z,18.27
2017-12-23T20:37:01.181Z,21.63
2017-12-23T20:39:28.221Z,15.97
2017-12-23T20:41:54.459Z,22.03
2017-12-23T20:44:21.468Z,22.00
2017-12-23T20:46:47.747Z,18.27
2017-12-23T20:49:14.761Z,15.70
2017-12-23T20:51:41.023Z,14.53
2017-12-23T20:54:08.040Z,19.23
2017-12-23T20:56:34.409Z,18.97
2017-12-23T20:59:00.670Z,20.80
2017-12-23T21:01:26.917Z,17.93
2017-12-23T21:03:53.184Z,17.57
2017-12-23T21:06:20.167Z,17.83
2017-12-23T21:08:46.462Z,18.67
2017-12-23T21:11:13.437Z,21.67
2017-12-23T21:13:39.748Z,12.00
2017-12-23T21:16:05.987Z,19.20
2017-12-23T21:18:32.247Z,14.03
2017-12-23T21:20:58.491Z,17.90
2017-12-23T21:23:24.776Z,8.90
2017-12-23T21:25:51.038Z,13.93
2017-12-23T21:28:17.317Z,16.20
2017-12-23T21:30:44.306Z,15.57
2017-12-23T21:33:10.563Z,20.83
2017-12-23T21:35:36.807Z,15.63
2017-12-23T21:38:03.925Z,11.67
2017-12-23T21:40:30.203Z,15.47
2017-12-23T21:42:56.452Z,21.50
2017-12-23T21:45:22.715Z,19.30
2017-12-23T21:47:49.009Z,19.30
2017-12-23T21:50:15.334Z,15.00
2017-12-23T21:52:41.603Z,19.07
2017-12-23T21:55:07.880Z,20.20
2017-12-23T21:57:34.138Z,17.70
2017-12-23T22:00:00.413Z,13.80
2017-12-23T22:02:27.386Z,17.87
2017-12-23T22:04:53.661Z,21.00
2017-12-23T22:07:19.981Z,17.20
2017-12-23T22:09:47.009Z,15.57
2017-12-23T22:12:13.269Z,20.37
2017-12-23T22:14:39.627Z,17.87
2017-12-23T22:17:06.629Z,15.57
2017-12-23T22:19:32.867Z,21.00
2017-12-23T22:21:59.168Z,21.23
2017-12-23T22:24:25.432Z,12.13
2017-12-23T22:26:51.748Z,12.37
2017-12-23T22:29:18.027Z,20.50
2017-12-23T22:31:45.019Z,19.63
2017-12-23T22:34:11.258Z,18.70
2017-12-23T22:36:37.526Z,20.30
2017-12-23T22:39:04.512Z,13.80
2017-12-23T22:41:30.864Z,18.73
2017-12-23T22:43:57.109Z,15.40
2017-12-23T22:46:23.398Z,19.50
2017-12-23T22:48:49.642Z,14.70
2017-12-23T22:51:15.909Z,16.27
2017-12-23T22:53:42.143Z,22.20
2017-12-23T22:56:08.399Z,11.67
2017-12-23T22:58:34.685Z,18.27
2017-12-23T23:01:00.983Z,14.90
2017-12-23T23:03:27.223Z,19.27
2017-12-23T23:05:53.508Z,15.23
2017-12-23T23:08:20.530Z,10.60
2017-12-23T23:10:46.836Z,7.13
2017-12-23T23:13:13.217Z,14.60
2017-12-23T23:15:40.236Z,13.70
2017-12-23T23:18:06.473Z,16.40
2017-12-23T23:20:32.814Z,15.20
2017-12-23T23:22:59.849Z,19.87
2017-12-23T23:25:26.191Z,15.67
2017-12-23T23:27:53.238Z,18.37
2017-12-23T23:30:19.617Z,14.40
2017-12-23T23:32:45.860Z,13.00
2017-12-23T23:35:12.117Z,15.83
2017-12-23T23:37:38.404Z,10.97
2017-12-23T23:40:04.700Z,11.93
2017-12-23T23:42:31.060Z,13.83
2017-12-23T23:44:57.329Z,10.50
2017-12-23T23:47:23.607Z,19.07
2017-12-23T23:49:49.845Z,12.67
2017-12-23T23:52:16.131Z,14.90
2017-12-23T23:54:43.138Z,18.50
2017-12-23T23:57:09.406Z,18.80
2017-12-23T23:59:36.410Z,17.27
